Time;durP1;ratioP1;P1;durP2;ratioP2;P2;SDS_P1;SDS_P2;PMS_P1;PMS_P2;Temp;Humidity;BMP_temperature;BMP_pressure;BME280_temperature;BME280_humidity;BME280_pressure;Samples;Min_cycle;Max_cycle;Signal;HPM_P1;HPM_P2
2022/07/12 00:01:50;;;;;;;;;;;;;;;;;;4943150;28;20376;-60
2022/07/12 00:04:15;;;;;;;;;;;;;;;;;;4933670;28;19922;-61
2022/07/12 00:06:41;;;;;;;;;;;;;;;;;;4950376;28;19927;-61
2022/07/12 00:09:06;;;;;;;;;;;;;;;;;;4954243;28;20372;-61
2022/07/12 00:11:31;;;;;;;;;;;;;;;;;;4954767;28;20368;-61
2022/07/12 00:13:56;;;;;;;;;;;;;;;;;;4950843;28;20338;-61
2022/07/12 00:16:22;;;;;;;;;;;;;;;;;;4936155;28;20446;-61
2022/07/12 00:18:47;;;;;;;;;;;;;;;;;;4946999;28;20461;-61
2022/07/12 00:21:13;;;;;;;;;;;;;;;;;;4939886;28;19922;-62
2022/07/12 00:23:38;;;;;;;;;;;;;;;;;;4945397;28;19918;-62
2022/07/12 00:26:04;;;;;;;;;;;;;;;;;;4946180;28;19926;-60
2022/07/12 00:28:30;;;;;;;;;;;;;;;;;;4963610;28;20053;-60
2022/07/12 00:30:55;;;;;;;;;;;;;;;;;;4957002;28;20298;-60
2022/07/12 00:33:20;;;;;;;;;;;;;;;;;;4934630;28;19918;-61
2022/07/12 00:35:45;;;;;;;;;;;;;;;;;;4941386;28;19929;-61
2022/07/12 00:38:10;;;;;;;;;;;;;;;;;;4945897;28;19918;-61
2022/07/12 00:40:36;;;;;;;;;;;;;;;;;;4952464;28;19925;-60
2022/07/12 00:43:01;;;;;;;;;;;;;;;;;;4952902;28;20006;-61
2022/07/12 00:45:26;;;;;;;;;;;;;;;;;;4953830;28;19914;-60
2022/07/12 00:47:51;;;;;;;;;;;;;;;;;;4934199;28;19988;-61
2022/07/12 00:50:16;;;;;;;;;;;;;;;;;;4932259;28;19924;-60
2022/07/12 00:52:42;;;;;;;;;;;;;;;;;;4941979;28;20458;-61
2022/07/12 00:55:07;;;;;;;;;;;;;;;;;;4950019;28;19918;-61
2022/07/12 00:57:32;;;;;;;;;;;;;;;;;;4946325;28;20029;-61
2022/07/12 00:59:57;;;;;;;;;;;;;;;;;;4958537;28;20843;-61
2022/07/12 01:02:23;;;;;;;;;;;;;;;;;;4945166;28;20692;-61
2022/07/12 01:04:48;;;;;;;;;;;;;;;;;;4948827;28;19925;-62
2022/07/12 01:07:13;;;;;;;;;;;;;;;;;;4944856;28;20010;-61
2022/07/12 01:09:38;;;;;;;;;;;;;;;;;;4952154;28;20342;-61
2022/07/12 01:12:04;;;;;;;;;;;;;;;;;;4945893;28;19923;-61
2022/07/12 01:14:29;;;;;;;;;;;;;;;;;;4944637;28;19926;-62
2022/07/12 01:16:54;;;;;;;;;;;;;;;;;;4953009;28;19918;-62
2022/07/12 01:19:20;;;;;;;;;;;;;;;;;;4944947;28;19961;-61
2022/07/12 01:21:45;;;;;;;;;;;;;;;;;;4950736;28;19928;-62
2022/07/12 01:24:10;;;;;;;;;;;;;;;;;;4943725;28;20497;-62
2022/07/12 01:26:35;;;;;;;;;;;;;;;;;;4943668;28;19927;-62
2022/07/12 01:29:00;;;;;;;;;;;;;;;;;;4959215;28;19918;-60
2022/07/12 01:31:26;;;;;;;;;;;;;;;;;;4955588;28;19921;-60
2022/07/12 01:33:53;;;;;;;;;;;;;;;;;;4961131;28;20217;-60
2022/07/12 01:36:18;;;;;;;;;;;;;;;;;;4941847;28;19996;-60
2022/07/12 01:38:43;;;;;;;;;;;;;;;;;;4945227;28;19918;-62
2022/07/12 01:41:08;;;;;;;;;;;;;;;;;;4953964;28;19953;-60
2022/07/12 01:43:34;;;;;;;;;;;;;;;;;;4947978;28;20311;-60
2022/07/12 01:45:59;;;;;;;;;;;;;;;;;;4953114;28;20049;-61
2022/07/12 01:48:24;;;;;;;;;;;;;;;;;;4945168;28;19922;-61
2022/07/12 01:50:49;;;;;;;;;;;;;;;;;;4957706;28;19918;-61
2022/07/12 01:53:14;;;;;;;;;;;;;;;;;;4949919;28;19918;-61
2022/07/12 01:55:40;;;;;;;;;;;;;;;;;;4948318;28;20657;-60
2022/07/12 01:58:05;;;;;;;;;;;;;;;;;;4948931;28;20263;-61
2022/07/12 02:00:30;;;;;;;;;;;;;;;;;;4943325;28;19922;-61
2022/07/12 02:02:55;;;;;;;;;;;;;;;;;;4933052;28;19961;-61
2022/07/12 02:05:20;;;;;;;;;;;;;;;;;;4950482;28;20644;-60
2022/07/12 02:07:46;;;;;;;;;;;;;;;;;;4951400;28;19929;-61
2022/07/12 02:10:11;;;;;;;;;;;;;;;;;;4966997;28;19918;-61
2022/07/12 02:12:36;;;;;;;;;;;;;;;;;;4959781;28;20661;-61
2022/07/12 02:15:01;;;;;;;;;;;;;;;;;;4959237;28;19926;-62
2022/07/12 02:17:27;;;;;;;;;;;;;;;;;;4956389;28;20635;-62
2022/07/12 02:19:52;;;;;;;;;;;;;;;;;;4947726;28;20268;-62
2022/07/12 02:22:18;;;;;;;;;;;;;;;;;;4967017;28;20025;-61
2022/07/12 02:24:43;;;;;;;;;;;;;;;;;;4932509;28;19981;-61
2022/07/12 02:27:08;;;;;;;;;;;;;;;;;;4948457;28;20454;-62
2022/07/12 02:29:35;;;;;;;;;;;;;;;;;;4958787;28;20667;-61
2022/07/12 02:32:00;;;;;;;;;;;;;;;;;;4936668;28;19926;-62
2022/07/12 02:34:26;;;;;;;;;;;;;;;;;;4937401;28;19919;-61
2022/07/12 02:36:51;;;;;;;;;;;;;;;;;;4948162;28;20290;-61
2022/07/12 02:39:16;;;;;;;;;;;;;;;;;;4957559;28;19925;-61
2022/07/12 02:41:41;;;;;;;;;;;;;;;;;;4953052;28;19924;-60
2022/07/12 02:44:06;;;;;;;;;;;;;;;;;;4948514;28;19930;-60
2022/07/12 02:46:32;;;;;;;;;;;;;;;;;;4965401;28;19945;-61
2022/07/12 02:48:58;;;;;;;;;;;;;;;;;;4946416;28;20195;-60
2022/07/12 02:51:23;;;;;;;;;;;;;;;;;;4946060;28;19991;-62
2022/07/12 02:53:48;;;;;;;;;;;;;;;;;;4952089;28;19996;-62
2022/07/12 02:56:13;;;;;;;;;;;;;;;;;;4947703;28;20285;-61
2022/07/12 02:58:39;;;;;;;;;;;;;;;;;;4951766;28;20024;-61
2022/07/12 03:01:04;;;;;;;;;;;;;;;;;;4945608;28;19923;-60
2022/07/12 03:03:29;;;;;;;;;;;;;;;;;;4935312;28;20528;-60
2022/07/12 03:05:55;;;;;;;;;;;;;;;;;;4954083;28;19922;-61
2022/07/12 03:08:20;;;;;;;;;;;;;;;;;;4961117;28;19932;-61
2022/07/12 03:10:46;;;;;;;;;;;;;;;;;;4954265;28;19919;-60
2022/07/12 03:13:11;;;;;;;;;;;;;;;;;;4946511;28;19953;-61
2022/07/12 03:15:36;;;;;;;;;;;;;;;;;;4947604;28;19918;-62
2022/07/12 03:18:01;;;;;;;;;;;;;;;;;;4942624;28;20213;-61
2022/07/12 03:20:26;;;;;;;;;;;;;;;;;;4943567;28;19918;-61
2022/07/12 03:22:53;;;;;;;;;;;;;;;;;;4944400;28;20045;-61
2022/07/12 03:25:18;;;;;;;;;;;;;;;;;;4946313;28;19982;-60
2022/07/12 03:27:44;;;;;;;;;;;;;;;;;;4947018;28;19934;-61
2022/07/12 03:30:09;;;;;;;;;;;;;;;;;;4952279;28;20001;-61
2022/07/12 03:32:34;;;;;;;;;;;;;;;;;;4936408;28;19930;-61
2022/07/12 03:34:59;;;;;;;;;;;;;;;;;;4954981;28;19925;-60
2022/07/12 03:37:25;;;;;;;;;;;;;;;;;;4948122;28;19929;-61
2022/07/12 03:39:50;;;;;;;;;;;;;;;;;;4947896;28;19928;-61
2022/07/12 03:42:15;;;;;;;;;;;;;;;;;;4936386;28;19927;-61
2022/07/12 03:44:41;;;;;;;;;;;;;;;;;;4944220;28;19922;-60
2022/07/12 03:47:06;;;;;;;;;;;;;;;;;;4952551;28;20355;-60
2022/07/12 03:49:31;;;;;;;;;;;;;;;;;;4945545;28;19933;-61
2022/07/12 03:51:56;;;;;;;;;;;;;;;;;;4932274;28;19937;-60
2022/07/12 03:54:21;;;;;;;;;;;;;;;;;;4953914;28;19973;-62
2022/07/12 03:59:31;;;;;;;;;;;;;;;;;;4946846;28;19922;-62
2022/07/12 04:01:56;;;;;;;;;;;;;;;;;;4951994;28;20343;-61
2022/07/12 04:04:21;;;;;;;;;;;;;;;;;;4943780;28;19945;-60
2022/07/12 04:06:46;;;;;;;;;;;;;;;;;;4942652;28;20427;-60
2022/07/12 04:09:13;;;;;;;;;;;;;;;;;;4942968;28;19922;-61
2022/07/12 04:11:38;;;;;;;;;;;;;;;;;;4961683;28;20539;-62
2022/07/12 04:14:03;;;;;;;;;;;;;;;;;;4954523;28;19925;-62
2022/07/12 04:16:29;;;;;;;;;;;;;;;;;;4955936;28;19918;-60
2022/07/12 04:18:55;;;;;;;;;;;;;;;;;;4951776;28;19969;-60
2022/07/12 04:21:20;;;;;;;;;;;;;;;;;;4945917;28;20050;-60
2022/07/12 04:23:45;;;;;;;;;;;;;;;;;;4945460;28;21510;-61
2022/07/12 04:26:10;;;;;;;;;;;;;;;;;;4959597;28;19930;-60
2022/07/12 04:28:36;;;;;;;;;;;;;;;;;;4944630;28;19923;-61
2022/07/12 04:31:01;;;;;;;;;;;;;;;;;;4949196;28;19922;-61
2022/07/12 04:33:26;;;;;;;;;;;;;;;;;;4945657;28;20303;-61
2022/07/12 04:35:51;;;;;;;;;;;;;;;;;;4946955;28;20279;-61
2022/07/12 04:38:16;;;;;;;;;;;;;;;;;;4951904;28;19980;-62
2022/07/12 04:40:42;;;;;;;;;;;;;;;;;;4929106;28;19981;-60
2022/07/12 04:43:07;;;;;;;;;;;;;;;;;;4952187;28;20033;-61
2022/07/12 04:45:32;;;;;;;;;;;;;;;;;;4946257;28;19925;-61
2022/07/12 04:47:58;;;;;;;;;;;;;;;;;;4943871;28;20389;-61
2022/07/12 04:50:23;;;;;;;;;;;;;;;;;;4953346;28;19918;-61
2022/07/12 04:52:48;;;;;;;;;;;;;;;;;;4945392;28;20544;-60
2022/07/12 04:55:13;;;;;;;;;;;;;;;;;;4965177;28;20299;-61
2022/07/12 04:57:39;;;;;;;;;;;;;;;;;;4944139;28;20632;-62
2022/07/12 05:00:04;;;;;;;;;;;;;;;;;;4944374;28;19925;-60
2022/07/12 05:02:29;;;;;;;;;;;;;;;;;;4948310;28;20582;-61
2022/07/12 05:04:54;;;;;;;;;;;;;;;;;;4941782;28;19922;-61
2022/07/12 05:07:20;;;;;;;;;;;;;;;;;;4948402;28;19926;-60
2022/07/12 05:09:45;;;;;;;;;;;;;;;;;;4943467;28;20029;-63
2022/07/12 05:12:10;;;;;;;;;;;;;;;;;;4948449;28;19922;-62
2022/07/12 05:14:35;;;;;;;;;;;;;;;;;;4949245;28;19919;-61
2022/07/12 05:17:01;;;;;;;;;;;;;;;;;;4942577;28;19922;-61
2022/07/12 05:19:26;;;;;;;;;;;;;;;;;;4950944;28;19918;-61
2022/07/12 05:21:51;;;;;;;;;;;;;;;;;;4946191;28;19918;-61
2022/07/12 05:24:16;;;;;;;;;;;;;;;;;;4941320;28;19978;-61
2022/07/12 05:26:41;;;;;;;;;;;;;;;;;;4949303;28;19988;-62
2022/07/12 05:29:07;;;;;;;;;;;;;;;;;;4945471;28;19922;-61
2022/07/12 05:31:32;;;;;;;;;;;;;;;;;;4950266;28;19938;-62
2022/07/12 05:33:57;;;;;;;;;;;;;;;;;;4934032;28;19917;-61
2022/07/12 05:36:22;;;;;;;;;;;;;;;;;;4942797;28;20009;-60
2022/07/12 05:38:48;;;;;;;;;;;;;;;;;;4950271;28;19918;-60
2022/07/12 05:41:13;;;;;;;;;;;;;;;;;;4944791;28;19923;-61
2022/07/12 05:43:38;;;;;;;;;;;;;;;;;;4951617;28;19922;-60
2022/07/12 05:46:03;;;;;;;;;;;;;;;;;;4945563;28;20422;-61
2022/07/12 05:48:28;;;;;;;;;;;;;;;;;;4948039;28;20432;-61
2022/07/12 05:50:54;;;;;;;;;;;;;;;;;;4966400;28;20804;-61
2022/07/12 05:53:22;;;;;;;;;;;;;;;;;;4943869;28;20453;-60
2022/07/12 05:55:47;;;;;;;;;;;;;;;;;;4948796;28;20268;-61
2022/07/12 05:58:12;;;;;;;;;;;;;;;;;;4957733;28;20046;-60
2022/07/12 06:00:37;;;;;;;;;;;;;;;;;;4958734;28;20398;-61
2022/07/12 06:03:02;;;;;;;;;;;;;;;;;;4956944;28;20040;-61
2022/07/12 06:05:28;;;;;;;;;;;;;;;;;;4931177;28;19921;-62
2022/07/12 06:07:53;;;;;;;;;;;;;;;;;;4930510;28;20265;-61
2022/07/12 06:10:18;;;;;;;;;;;;;;;;;;4946654;28;19922;-61
2022/07/12 06:12:43;;;;;;;;;;;;;;;;;;4947950;28;19926;-60
2022/07/12 06:15:09;;;;;;;;;;;;;;;;;;4950267;28;20000;-61
2022/07/12 06:17:34;;;;;;;;;;;;;;;;;;4944347;28;19926;-58
2022/07/12 06:19:59;;;;;;;;;;;;;;;;;;4963466;28;20374;-61
2022/07/12 06:22:24;;;;;;;;;;;;;;;;;;4953668;28;20397;-60
2022/07/12 06:24:50;;;;;;;;;;;;;;;;;;4961648;28;19965;-60
2022/07/12 06:27:15;;;;;;;;;;;;;;;;;;4941147;28;20017;-60
2022/07/12 06:29:40;;;;;;;;;;;;;;;;;;4953489;28;20376;-61
2022/07/12 06:32:06;;;;;;;;;;;;;;;;;;4951941;28;20249;-60
2022/07/12 06:34:31;;;;;;;;;;;;;;;;;;4950650;28;19922;-61
2022/07/12 06:36:56;;;;;;;;;;;;;;;;;;4972374;28;19917;-61
2022/07/12 06:39:21;;;;;;;;;;;;;;;;;;4951033;28;20433;-61
2022/07/12 06:41:46;;;;;;;;;;;;;;;;;;4952604;28;19921;-61
2022/07/12 06:44:12;;;;;;;;;;;;;;;;;;4952558;28;19929;-61
2022/07/12 06:46:37;;;;;;;;;;;;;;;;;;4951227;28;19993;-61
2022/07/12 06:49:02;;;;;;;;;;;;;;;;;;4947619;28;20344;-61
2022/07/12 06:51:27;;;;;;;;;;;;;;;;;;4948292;28;19922;-61
2022/07/12 06:53:53;;;;;;;;;;;;;;;;;;4954875;28;19918;-60
2022/07/12 06:56:18;;;;;;;;;;;;;;;;;;4954707;28;20335;-61
2022/07/12 06:58:44;;;;;;;;;;;;;;;;;;4968041;28;20419;-60
2022/07/12 07:01:10;;;;;;;;;;;;;;;;;;4968210;28;20006;-59
2022/07/12 07:03:35;;;;;;;;;;;;;;;;;;4953141;28;20309;-60
2022/07/12 07:06:00;;;;;;;;;;;;;;;;;;4968074;28;20434;-60
2022/07/12 07:08:25;;;;;;;;;;;;;;;;;;4952245;28;19923;-60
2022/07/12 07:10:51;;;;;;;;;;;;;;;;;;4968214;28;19923;-61
2022/07/12 07:13:16;;;;;;;;;;;;;;;;;;4954149;28;20245;-61
2022/07/12 07:15:42;;;;;;;;;;;;;;;;;;4944959;28;19961;-60
2022/07/12 07:18:07;;;;;;;;;;;;;;;;;;4966833;28;19918;-61
2022/07/12 07:20:33;;;;;;;;;;;;;;;;;;4937205;28;19926;-61
2022/07/12 07:22:58;;;;;;;;;;;;;;;;;;4965745;28;20044;-62
2022/07/12 07:25:23;;;;;;;;;;;;;;;;;;4953561;28;19925;-65
2022/07/12 07:27:48;;;;;;;;;;;;;;;;;;4938172;28;19929;-61
2022/07/12 07:32:57;;;;;;;;;;;;;;;;;;4955022;28;19929;-61
2022/07/12 07:35:23;;;;;;;;;;;;;;;;;;4954490;28;19977;-62
2022/07/12 07:37:48;;;;;;;;;;;;;;;;;;4953354;28;19919;-61
2022/07/12 07:40:13;;;;;;;;;;;;;;;;;;4954325;28;19918;-61
2022/07/12 07:42:39;;;;;;;;;;;;;;;;;;4953346;28;19918;-61
2022/07/12 07:45:06;;;;;;;;;;;;;;;;;;4954778;28;20365;-61
2022/07/12 07:47:31;;;;;;;;;;;;;;;;;;4945384;28;19926;-61
2022/07/12 07:49:56;;;;;;;;;;;;;;;;;;4955887;28;19929;-61
2022/07/12 07:52:21;;;;;;;;;;;;;;;;;;4952439;28;19925;-61
2022/07/12 07:54:47;;;;;;;;;;;;;;;;;;4952877;28;20334;-61
2022/07/12 07:57:12;;;;;;;;;;;;;;;;;;4953683;28;19922;-61
2022/07/12 07:59:37;;;;;;;;;;;;;;;;;;4953383;28;19922;-62
2022/07/12 08:02:02;;;;;;;;;;;;;;;;;;4954944;28;21009;-61
2022/07/12 08:04:27;;;;;;;;;;;;;;;;;;4953005;28;19920;-61
2022/07/12 08:06:53;;;;;;;;;;;;;;;;;;4956133;28;20008;-61
2022/07/12 08:09:18;;;;;;;;;;;;;;;;;;4953686;28;20169;-62
2022/07/12 08:11:43;;;;;;;;;;;;;;;;;;4954727;28;20013;-61
2022/07/12 08:14:09;;;;;;;;;;;;;;;;;;4967404;28;19919;-61
2022/07/12 08:16:34;;;;;;;;;;;;;;;;;;4952578;28;19922;-61
2022/07/12 08:18:59;;;;;;;;;;;;;;;;;;4952495;28;20004;-61
2022/07/12 08:21:24;;;;;;;;;;;;;;;;;;4953016;28;19995;-61
2022/07/12 08:23:50;;;;;;;;;;;;;;;;;;4967036;28;20295;-61
2022/07/12 08:26:15;;;;;;;;;;;;;;;;;;4950622;28;20013;-61
2022/07/12 08:28:40;;;;;;;;;;;;;;;;;;4950375;28;20375;-61
2022/07/12 08:31:05;;;;;;;;;;;;;;;;;;4952480;28;19922;-62
2022/07/12 08:33:30;;;;;;;;;;;;;;;;;;4954258;28;19933;-62
2022/07/12 08:35:56;;;;;;;;;;;;;;;;;;4967856;28;19973;-60
2022/07/12 08:38:21;;;;;;;;;;;;;;;;;;4953256;28;19922;-62
2022/07/12 08:40:46;;;;;;;;;;;;;;;;;;4954445;28;20387;-61
2022/07/12 08:43:12;;;;;;;;;;;;;;;;;;4937999;28;20434;-61
2022/07/12 08:45:37;;;;;;;;;;;;;;;;;;4956365;28;19918;-61
2022/07/12 08:48:02;;;;;;;;;;;;;;;;;;4954387;28;19918;-61
2022/07/12 08:50:28;;;;;;;;;;;;;;;;;;4967063;28;19926;-61
2022/07/12 08:52:53;;;;;;;;;;;;;;;;;;4951376;28;19918;-65
2022/07/12 08:55:18;;;;;;;;;;;;;;;;;;4952449;28;19922;-62
2022/07/12 08:57:43;;;;;;;;;;;;;;;;;;4960870;28;19985;-61
2022/07/12 09:00:09;;;;;;;;;;;;;;;;;;4938300;28;19941;-61
2022/07/12 09:02:34;;;;;;;;;;;;;;;;;;4936840;28;19957;-61
2022/07/12 09:04:59;;;;;;;;;;;;;;;;;;4965098;28;19925;-62
2022/07/12 09:07:25;;;;;;;;;;;;;;;;;;4966748;28;19930;-63
2022/07/12 09:09:50;;;;;;;;;;;;;;;;;;4956338;28;19922;-63
2022/07/12 09:12:16;;;;;;;;;;;;;;;;;;4944812;28;19918;-63
2022/07/12 09:14:41;;;;;;;;;;;;;;;;;;4953529;28;19922;-61
2022/07/12 09:17:10;;;;;;;;;;;;;;;;;;4952567;28;19918;-62
2022/07/12 09:19:35;;;;;;;;;;;;;;;;;;4965058;28;20462;-60
2022/07/12 09:22:00;;;;;;;;;;;;;;;;;;4953339;28;19925;-60
2022/07/12 09:24:26;;;;;;;;;;;;;;;;;;4952133;28;20025;-61
2022/07/12 09:26:51;;;;;;;;;;;;;;;;;;4950897;28;19949;-61
2022/07/12 09:29:18;;;;;;;;;;;;;;;;;;4950794;28;20431;-60
2022/07/12 09:37:12;;;;;;;;;;;;;;;;;;4965789;28;19933;-61
2022/07/12 09:39:37;;;;;;;;;;;;;;;;;;4950449;28;19926;-61
2022/07/12 09:42:02;;;;;;;;;;;;;;;;;;4951242;28;19965;-61
2022/07/12 09:44:27;;;;;;;;;;;;;;;;;;4939071;28;19918;-61
2022/07/12 09:46:53;;;;;;;;;;;;;;;;;;4950810;28;19929;-62
2022/07/12 09:49:18;;;;;;;;;;;;;;;;;;4950171;28;20236;-62
2022/07/12 09:51:43;;;;;;;;;;;;;;;;;;4965088;28;20399;-62
2022/07/12 09:54:08;;;;;;;;;;;;;;;;;;4930295;28;19961;-64
2022/07/12 09:56:34;;;;;;;;;;;;;;;;;;4955565;28;19922;-62
2022/07/12 09:58:59;;;;;;;;;;;;;;;;;;4945931;28;19922;-62
2022/07/12 10:01:25;;;;;;;;;;;;;;;;;;4950214;28;19918;-61
2022/07/12 10:03:50;;;;;;;;;;;;;;;;;;4947184;28;19925;-62
2022/07/12 10:06:15;;;;;;;;;;;;;;;;;;4950735;28;19926;-63
2022/07/12 10:08:40;;;;;;;;;;;;;;;;;;4951406;28;19929;-63
2022/07/12 10:11:06;;;;;;;;;;;;;;;;;;4954445;28;19933;-63
2022/07/12 10:13:31;;;;;;;;;;;;;;;;;;4967242;28;19949;-61
2022/07/12 10:15:56;;;;;;;;;;;;;;;;;;4956162;28;19922;-62
2022/07/12 10:18:21;;;;;;;;;;;;;;;;;;4968310;28;19929;-61
2022/07/12 10:20:47;;;;;;;;;;;;;;;;;;4955331;28;19976;-60
2022/07/12 10:23:12;;;;;;;;;;;;;;;;;;4953425;28;19973;-61
2022/07/12 10:25:37;;;;;;;;;;;;;;;;;;4953562;28;19918;-61
2022/07/12 10:28:02;;;;;;;;;;;;;;;;;;4968944;28;19945;-62
2022/07/12 10:30:28;;;;;;;;;;;;;;;;;;4959593;28;19922;-62
2022/07/12 10:32:53;;;;;;;;;;;;;;;;;;4972273;28;20402;-61
2022/07/12 10:35:19;;;;;;;;;;;;;;;;;;4958243;28;19922;-61
2022/07/12 10:37:44;;;;;;;;;;;;;;;;;;4955112;28;20342;-61
2022/07/12 10:40:09;;;;;;;;;;;;;;;;;;4973772;28;19945;-61
2022/07/12 10:42:34;;;;;;;;;;;;;;;;;;4956452;28;20189;-61
2022/07/12 10:44:59;;;;;;;;;;;;;;;;;;4949572;28;19997;-61
2022/07/12 10:47:25;;;;;;;;;;;;;;;;;;4957026;28;19981;-61
2022/07/12 10:49:52;;;;;;;;;;;;;;;;;;4970996;28;19929;-61
2022/07/12 10:52:17;;;;;;;;;;;;;;;;;;4969093;28;19922;-61
2022/07/12 10:54:42;;;;;;;;;;;;;;;;;;4956865;28;19929;-61
2022/07/12 10:57:08;;;;;;;;;;;;;;;;;;4954828;28;19929;-61
2022/07/12 10:59:33;;;;;;;;;;;;;;;;;;4958620;28;19918;-61
2022/07/12 11:01:59;;;;;;;;;;;;;;;;;;4953517;28;19922;-61
2022/07/12 11:04:25;;;;;;;;;;;;;;;;;;4954173;28;19926;-62
2022/07/12 11:06:55;;;;;;;;;;;;;;;;;;4956838;28;20470;-61
2022/07/12 11:09:20;;;;;;;;;;;;;;;;;;4955958;28;20513;-62
2022/07/12 11:11:48;;;;;;;;;;;;;;;;;;4946085;28;20005;-62
2022/07/12 11:14:13;;;;;;;;;;;;;;;;;;4955367;28;19957;-61
2022/07/12 11:16:39;;;;;;;;;;;;;;;;;;4953720;28;20560;-62
2022/07/12 11:19:04;;;;;;;;;;;;;;;;;;4952327;28;20418;-62
2022/07/12 11:21:29;;;;;;;;;;;;;;;;;;4955061;28;19918;-62
2022/07/12 11:23:55;;;;;;;;;;;;;;;;;;4969130;28;20366;-62
2022/07/12 11:26:20;;;;;;;;;;;;;;;;;;4953550;28;20272;-62
2022/07/12 11:28:45;;;;;;;;;;;;;;;;;;4952552;28;20235;-62
2022/07/12 11:31:11;;;;;;;;;;;;;;;;;;4953640;28;19923;-62
2022/07/12 11:33:36;;;;;;;;;;;;;;;;;;4953780;28;19921;-62
2022/07/12 11:36:01;;;;;;;;;;;;;;;;;;4954028;28;19929;-63
2022/07/12 11:38:27;;;;;;;;;;;;;;;;;;4953223;28;19918;-61
2022/07/12 11:40:52;;;;;;;;;;;;;;;;;;4954092;28;19929;-61
2022/07/12 11:43:17;;;;;;;;;;;;;;;;;;4954302;28;20443;-61
2022/07/12 11:45:42;;;;;;;;;;;;;;;;;;4969015;28;19918;-61
2022/07/12 11:48:08;;;;;;;;;;;;;;;;;;4952403;28;20334;-62
2022/07/12 11:50:34;;;;;;;;;;;;;;;;;;4954362;28;19992;-61
2022/07/12 11:52:59;;;;;;;;;;;;;;;;;;4952456;28;20368;-62
2022/07/12 11:55:25;;;;;;;;;;;;;;;;;;4953329;28;19944;-61
2022/07/12 11:57:50;;;;;;;;;;;;;;;;;;4967165;28;20001;-61
2022/07/12 12:00:15;;;;;;;;;;;;;;;;;;4967242;28;19973;-62
2022/07/12 12:02:40;;;;;;;;;;;;;;;;;;4954796;28;20598;-62
2022/07/12 12:05:06;;;;;;;;;;;;;;;;;;4952605;28;19919;-63
2022/07/12 12:07:31;;;;;;;;;;;;;;;;;;4952859;28;19929;-62
2022/07/12 12:09:56;;;;;;;;;;;;;;;;;;4954474;28;19929;-64
2022/07/12 12:12:21;;;;;;;;;;;;;;;;;;4953122;28;19922;-62
2022/07/12 12:14:46;;;;;;;;;;;;;;;;;;4954130;28;19929;-63
2022/07/12 12:17:12;;;;;;;;;;;;;;;;;;4954591;28;19930;-62
2022/07/12 12:19:37;;;;;;;;;;;;;;;;;;4969052;28;19918;-62
2022/07/12 12:22:02;;;;;;;;;;;;;;;;;;4953032;28;19919;-62
2022/07/12 12:24:27;;;;;;;;;;;;;;;;;;4954331;28;20377;-62
2022/07/12 12:26:52;;;;;;;;;;;;;;;;;;4966733;28;20730;-62
2022/07/12 12:29:18;;;;;;;;;;;;;;;;;;4953558;28;19922;-62
2022/07/12 12:31:43;;;;;;;;;;;;;;;;;;4952626;28;19929;-62
2022/07/12 12:34:08;;;;;;;;;;;;;;;;;;4951017;28;19985;-63
2022/07/12 12:36:33;;;;;;;;;;;;;;;;;;4952676;28;20286;-63
2022/07/12 12:38:58;;;;;;;;;;;;;;;;;;4952299;28;19918;-62
2022/07/12 12:41:24;;;;;;;;;;;;;;;;;;4951838;28;19918;-63
2022/07/12 12:43:49;;;;;;;;;;;;;;;;;;4953323;28;19918;-62
2022/07/12 12:46:14;;;;;;;;;;;;;;;;;;4966081;28;19922;-62
2022/07/12 12:48:39;;;;;;;;;;;;;;;;;;4953821;28;20012;-63
2022/07/12 12:51:05;;;;;;;;;;;;;;;;;;4965188;28;19924;-63
2022/07/12 12:53:30;;;;;;;;;;;;;;;;;;4951424;28;19973;-62
2022/07/12 12:55:55;;;;;;;;;;;;;;;;;;4952054;28;19918;-63
2022/07/12 12:58:20;;;;;;;;;;;;;;;;;;4965543;28;20363;-62
2022/07/12 13:00:46;;;;;;;;;;;;;;;;;;4938897;28;19977;-62
2022/07/12 13:03:11;;;;;;;;;;;;;;;;;;4951527;28;19918;-62
2022/07/12 13:05:36;;;;;;;;;;;;;;;;;;4951374;28;20248;-63
2022/07/12 13:08:01;;;;;;;;;;;;;;;;;;4955395;28;20379;-63
2022/07/12 13:10:26;;;;;;;;;;;;;;;;;;4952391;28;20374;-63
2022/07/12 13:12:52;;;;;;;;;;;;;;;;;;4952655;28;19927;-62
2022/07/12 13:15:17;;;;;;;;;;;;;;;;;;4952706;28;19973;-62
2022/07/12 13:17:42;;;;;;;;;;;;;;;;;;4952113;28;19922;-62
2022/07/12 13:20:08;;;;;;;;;;;;;;;;;;4953160;28;19997;-63
2022/07/12 13:22:33;;;;;;;;;;;;;;;;;;4953233;28;19953;-62
2022/07/12 13:24:58;;;;;;;;;;;;;;;;;;4952617;28;19925;-62
2022/07/12 13:27:23;;;;;;;;;;;;;;;;;;4952344;28;19922;-61
2022/07/12 13:29:49;;;;;;;;;;;;;;;;;;4953092;28;20052;-63
2022/07/12 13:32:14;;;;;;;;;;;;;;;;;;4966476;28;19974;-62
2022/07/12 13:34:39;;;;;;;;;;;;;;;;;;4965693;28;19929;-62
2022/07/12 13:37:05;;;;;;;;;;;;;;;;;;4952466;28;20792;-62
2022/07/12 13:42:14;;;;;;;;;;;;;;;;;;4952021;28;19918;-63
2022/07/12 13:44:39;;;;;;;;;;;;;;;;;;4951956;28;19925;-63
2022/07/12 13:47:04;;;;;;;;;;;;;;;;;;4951695;28;19929;-63
2022/07/12 13:49:29;;;;;;;;;;;;;;;;;;4965027;28;20655;-63
2022/07/12 13:51:55;;;;;;;;;;;;;;;;;;4938572;28;20379;-63
2022/07/12 13:54:20;;;;;;;;;;;;;;;;;;4953167;28;20381;-62
2022/07/12 13:56:47;;;;;;;;;;;;;;;;;;4950913;28;19922;-64
2022/07/12 13:59:12;;;;;;;;;;;;;;;;;;4952670;28;19918;-65
2022/07/12 14:01:37;;;;;;;;;;;;;;;;;;4954069;28;19925;-63
2022/07/12 14:04:02;;;;;;;;;;;;;;;;;;4956324;28;19923;-63
2022/07/12 14:06:28;;;;;;;;;;;;;;;;;;4957495;28;20356;-62
2022/07/12 14:08:53;;;;;;;;;;;;;;;;;;4971088;28;19958;-63
2022/07/12 14:11:18;;;;;;;;;;;;;;;;;;4959624;28;19965;-63
2022/07/12 14:13:43;;;;;;;;;;;;;;;;;;4956798;28;20042;-64
2022/07/12 14:16:08;;;;;;;;;;;;;;;;;;4948603;28;19960;-63
2022/07/12 14:18:34;;;;;;;;;;;;;;;;;;4958163;28;19993;-62
2022/07/12 14:20:59;;;;;;;;;;;;;;;;;;4947443;28;19926;-64
2022/07/12 14:23:24;;;;;;;;;;;;;;;;;;4957535;28;19977;-63
2022/07/12 14:25:49;;;;;;;;;;;;;;;;;;4944805;28;19914;-64
2022/07/12 14:28:14;;;;;;;;;;;;;;;;;;4956562;28;19973;-63
2022/07/12 14:30:40;;;;;;;;;;;;;;;;;;4956821;28;19973;-63
2022/07/12 14:33:05;;;;;;;;;;;;;;;;;;4958774;28;19925;-64
2022/07/12 14:35:30;;;;;;;;;;;;;;;;;;4958551;28;19926;-64
2022/07/12 14:37:56;;;;;;;;;;;;;;;;;;4956985;28;20020;-63
2022/07/12 14:40:21;;;;;;;;;;;;;;;;;;4971917;28;19918;-64
2022/07/12 14:42:46;;;;;;;;;;;;;;;;;;4969781;28;20151;-63
2022/07/12 14:45:11;;;;;;;;;;;;;;;;;;4958720;28;19921;-62
2022/07/12 14:47:37;;;;;;;;;;;;;;;;;;4959150;28;19922;-63
2022/07/12 14:50:04;;;;;;;;;;;;;;;;;;4970141;28;19926;-62
2022/07/12 14:52:29;;;;;;;;;;;;;;;;;;4956913;28;19974;-63
2022/07/12 14:54:55;;;;;;;;;;;;;;;;;;4957457;28;19918;-62
2022/07/12 14:57:21;;;;;;;;;;;;;;;;;;4955912;28;19984;-62
2022/07/12 14:59:46;;;;;;;;;;;;;;;;;;4957687;28;19917;-62
2022/07/12 15:02:11;;;;;;;;;;;;;;;;;;4955844;28;19918;-62
2022/07/12 15:04:36;;;;;;;;;;;;;;;;;;4957610;28;19925;-62
2022/07/12 15:07:02;;;;;;;;;;;;;;;;;;4958856;28;19923;-62
2022/07/12 15:09:27;;;;;;;;;;;;;;;;;;4971843;28;19929;-62
2022/07/12 15:11:52;;;;;;;;;;;;;;;;;;4957347;28;20050;-63
2022/07/12 15:14:17;;;;;;;;;;;;;;;;;;4957557;28;20002;-62
2022/07/12 15:16:43;;;;;;;;;;;;;;;;;;4939036;28;19922;-63
2022/07/12 15:19:08;;;;;;;;;;;;;;;;;;4944447;28;20401;-62
2022/07/12 15:21:33;;;;;;;;;;;;;;;;;;4954510;28;19926;-63
2022/07/12 15:23:58;;;;;;;;;;;;;;;;;;4968150;28;20001;-63
2022/07/12 15:26:24;;;;;;;;;;;;;;;;;;4952396;28;19929;-62
2022/07/12 15:28:49;;;;;;;;;;;;;;;;;;4969072;28;20037;-62
2022/07/12 15:31:14;;;;;;;;;;;;;;;;;;4952054;28;20306;-62
2022/07/12 15:33:39;;;;;;;;;;;;;;;;;;4955810;28;20724;-62
2022/07/12 15:36:05;;;;;;;;;;;;;;;;;;4954207;28;19919;-62
2022/07/12 15:38:30;;;;;;;;;;;;;;;;;;4955215;28;20454;-62
2022/07/12 15:40:55;;;;;;;;;;;;;;;;;;4955223;28;20353;-62
2022/07/12 15:43:20;;;;;;;;;;;;;;;;;;4951779;28;19922;-62
2022/07/12 15:45:46;;;;;;;;;;;;;;;;;;4953504;28;19918;-62
2022/07/12 15:48:12;;;;;;;;;;;;;;;;;;4966603;28;19922;-63
2022/07/12 15:50:37;;;;;;;;;;;;;;;;;;4953250;28;19930;-62
2022/07/12 15:55:46;;;;;;;;;;;;;;;;;;4950794;28;19918;-63
2022/07/12 15:58:11;;;;;;;;;;;;;;;;;;4951847;28;19925;-62
2022/07/12 16:00:36;;;;;;;;;;;;;;;;;;4954516;28;20017;-63
2022/07/12 16:03:03;;;;;;;;;;;;;;;;;;4952170;28;20486;-63
2022/07/12 16:05:30;;;;;;;;;;;;;;;;;;4953129;28;20179;-62
2022/07/12 16:07:55;;;;;;;;;;;;;;;;;;4954740;28;20485;-63
2022/07/12 16:10:21;;;;;;;;;;;;;;;;;;4952797;28;19922;-63
2022/07/12 16:12:47;;;;;;;;;;;;;;;;;;4955401;28;19925;-63
2022/07/12 16:15:12;;;;;;;;;;;;;;;;;;4953229;28;19923;-65
2022/07/12 16:17:38;;;;;;;;;;;;;;;;;;4952608;28;20309;-63
2022/07/12 16:20:04;;;;;;;;;;;;;;;;;;4954313;28;20036;-63
2022/07/12 16:22:29;;;;;;;;;;;;;;;;;;4953336;28;20211;-63
2022/07/12 16:24:54;;;;;;;;;;;;;;;;;;4948046;28;19923;-63
2022/07/12 16:27:19;;;;;;;;;;;;;;;;;;4961001;28;19922;-63
2022/07/12 16:29:45;;;;;;;;;;;;;;;;;;4931825;28;19922;-63
2022/07/12 16:32:10;;;;;;;;;;;;;;;;;;4949675;28;19946;-62
2022/07/12 16:34:35;;;;;;;;;;;;;;;;;;4939349;28;19918;-62
2022/07/12 16:37:01;;;;;;;;;;;;;;;;;;4934969;28;20300;-62
2022/07/12 16:39:26;;;;;;;;;;;;;;;;;;4949691;28;20282;-61
2022/07/12 16:41:51;;;;;;;;;;;;;;;;;;4958768;28;20020;-61
2022/07/12 16:44:16;;;;;;;;;;;;;;;;;;4943311;28;19918;-63
2022/07/12 16:46:41;;;;;;;;;;;;;;;;;;4943393;28;19922;-62
2022/07/12 16:49:07;;;;;;;;;;;;;;;;;;4944116;28;19938;-62